Observation data for Hart on 11/16/2019      Previous  Date       Current Mesonet Observations  Soil Data  Daily Summary Page  Observations in Plain Language
KHRS 160600Z 20008KT 03/M03 A3016 RMK A01 T00271025  RH  069%=      5-min Rain = 0
KHRS 160605Z 21007KT 02/M03 A3016 RMK A01 T00241025  RH  071%=      5-min Rain = 0
KHRS 160610Z 20008KT 02/M03 A3016 RMK A01 T00231025  RH  071%=      5-min Rain = 0
KHRS 160615Z 20008KT 02/M02 A3016 RMK A01 T00231024  RH  072%=      5-min Rain = 0
KHRS 160620Z 20008KT 02/M03 A3016 RMK A01 T00221025  RH  072%=      5-min Rain = 0
KHRS 160625Z 20007KT 02/M03 A3016 RMK A01 T00201026  RH  073%=      5-min Rain = 0
KHRS 160630Z 20007KT 02/M03 A3016 RMK A01 T00181026  RH  074%=      5-min Rain = 0
KHRS 160635Z 20007KT 02/M02 A3016 RMK A01 T00191024  RH  074%=      5-min Rain = 0
KHRS 160640Z 20008KT 02/M02 A3015 RMK A01 T00201023  RH  074%=      5-min Rain = 0
KHRS 160645Z 20008KT 02/M02 A3015 RMK A01 T00201023  RH  074%=      5-min Rain = 0
KHRS 160650Z 20008KT 02/M02 A3015 RMK A01 T00201022  RH  074%=      5-min Rain = 0
KHRS 160655Z 20008KT 02/M02 A3015 RMK A01 T00211022  RH  074%=      5-min Rain = 0
KHRS 160700Z 20008KT 02/M02 A3015 RMK A01 T00201023  RH  074%=      5-min Rain = 0
KHRS 160705Z 20007KT 02/M02 A3015 RMK A01 T00191024  RH  074%=      5-min Rain = 0
KHRS 160710Z 20007KT 02/M03 A3015 RMK A01 T00171025  RH  075%=      5-min Rain = 0
KHRS 160715Z 20007KT 02/M03 A3015 RMK A01 T00151025  RH  075%=      5-min Rain = 0
KHRS 160720Z 20007KT 01/M03 A3014 RMK A01 T00131026  RH  076%=      5-min Rain = 0
KHRS 160725Z 20007KT 01/M03 A3014 RMK A01 T00121026  RH  077%=      5-min Rain = 0
KHRS 160730Z 20007KT 01/M03 A3014 RMK A01 T00111026  RH  077%=      5-min Rain = 0
KHRS 160735Z 20007KT 01/M03 A3014 RMK A01 T00101026  RH  078%=      5-min Rain = 0
KHRS 160740Z 20007KT 01/M03 A3014 RMK A01 T00101026  RH  078%=      5-min Rain = 0
KHRS 160745Z 21007KT 01/M03 A3014 RMK A01 T00091026  RH  078%=      5-min Rain = 0
KHRS 160750Z 21007KT 01/M03 A3014 RMK A01 T00081027  RH  078%=      5-min Rain = 0
KHRS 160755Z 21007KT 01/M03 A3014 RMK A01 T00071027  RH  079%=      5-min Rain = 0
KHRS 160800Z 21006KT 01/M03 A3014 RMK A01 T00071027  RH  079%=      5-min Rain = 0
KHRS 160805Z 21006KT 01/M03 A3014 RMK A01 T00061027  RH  079%=      5-min Rain = 0
KHRS 160810Z 21007KT 01/M03 A3013 RMK A01 T00061027  RH  079%=      5-min Rain = 0
KHRS 160815Z 22007KT 00/M03 A3013 RMK A01 T00031030  RH  079%=      5-min Rain = 0
KHRS 160820Z 22007KT 00/M03 A3013 RMK A01 T00011031  RH  080%=      5-min Rain = 0
KHRS 160825Z 23007KT M00/M03 A3013 RMK A01 T10011031  RH  081%=      5-min Rain = 0
KHRS 160830Z 23007KT M00/M03 A3013 RMK A01 T10021032  RH  081%=      5-min Rain = 0
KHRS 160835Z 23006KT M00/M03 A3013 RMK A01 T10021031  RH  082%=      5-min Rain = 0
KHRS 160840Z 23005KT M00/M03 A3013 RMK A01 T10031031  RH  082%=      5-min Rain = 0
KHRS 160845Z 23005KT M00/M03 A3013 RMK A01 T10041033  RH  082%=      5-min Rain = 0
KHRS 160850Z 23005KT M01/M03 A3013 RMK A01 T10051033  RH  083%=      5-min Rain = 0
KHRS 160855Z 23005KT M01/M03 A3012 RMK A01 T10061033  RH  083%=      5-min Rain = 0
KHRS 160900Z 23005KT M01/M03 A3012 RMK A01 T10061033  RH  083%=      5-min Rain = 0
KHRS 160905Z 24004KT M01/M03 A3012 RMK A01 T10071034  RH  083%=      5-min Rain = 0
KHRS 160910Z 24004KT M01/M04 A3012 RMK A01 T10081035  RH  083%=      5-min Rain = 0
KHRS 160915Z 23003KT M01/M03 A3012 RMK A01 T10091034  RH  084%=      5-min Rain = 0
KHRS 160920Z 23004KT M01/M03 A3012 RMK A01 T10071031  RH  085%=      5-min Rain = 0
KHRS 160925Z 23004KT M01/M03 A3012 RMK A01 T10061030  RH  084%=      5-min Rain = 0
KHRS 160930Z 23005KT M01/M03 A3012 RMK A01 T10051030  RH  084%=      5-min Rain = 0
KHRS 160935Z 22006KT M01/M03 A3012 RMK A01 T10061030  RH  084%=      5-min Rain = 0
KHRS 160940Z 22006KT M01/M03 A3012 RMK A01 T10051029  RH  085%=      5-min Rain = 0
KHRS 160945Z 22006KT M00/M03 A3012 RMK A01 T10041029  RH  084%=      5-min Rain = 0
KHRS 160950Z 22007KT M00/M03 A3012 RMK A01 T10041029  RH  084%=      5-min Rain = 0
KHRS 160955Z 22007KT M00/M03 A3012 RMK A01 T10041029  RH  084%=      5-min Rain = 0
KHRS 161000Z 22007KT M00/M03 A3012 RMK A01 T10041028  RH  084%=      5-min Rain = 0
KHRS 161005Z 22007KT M00/M03 A3011 RMK A01 T10031027  RH  085%=      5-min Rain = 0
KHRS 161010Z 21007KT M00/M03 A3011 RMK A01 T10011025  RH  085%=      5-min Rain = 0
KHRS 161015Z 21007KT M00/M03 A3011 RMK A01 T10011026  RH  084%=      5-min Rain = 0
KHRS 161020Z 21007KT M00/M03 A3011 RMK A01 T10031029  RH  084%=      5-min Rain = 0
KHRS 161025Z 21007KT M01/M03 A3011 RMK A01 T10061029  RH  086%=      5-min Rain = 0
KHRS 161030Z 21007KT M00/M03 A3011 RMK A01 T10041025  RH  087%=      5-min Rain = 0
KHRS 161035Z 21007KT M00/M02 A3011 RMK A01 T10021024  RH  086%=      5-min Rain = 0
KHRS 161040Z 20007KT M00/M03 A3011 RMK A01 T10031025  RH  086%=      5-min Rain = 0
KHRS 161045Z 20007KT M00/M02 A301 RMK A01 T10031023  RH  087%=      5-min Rain = 0
KHRS 161050Z 19007KT 00/M02 A301 RMK A01 T00021018  RH  088%=      5-min Rain = 0
KHRS 161055Z 19007KT 01/M02 A301 RMK A01 T00071015  RH  086%=      5-min Rain = 0
KHRS 161100Z 19006KT 01/M01 A301 RMK A01 T00101013  RH  085%=      5-min Rain = 0
KHRS 161105Z 19007KT 01/M01 A301 RMK A01 T00131013  RH  084%=      5-min Rain = 0
KHRS 161110Z 19008KT 01/M01 A301 RMK A01 T00141013  RH  083%=      5-min Rain = 0
KHRS 161115Z 19008KT 02/M01 A301 RMK A01 T00161012  RH  083%=      5-min Rain = 0
KHRS 161120Z 19008KT 02/M01 A301 RMK A01 T00171011  RH  082%=      5-min Rain = 0
KHRS 161125Z 19008KT 02/M01 A301 RMK A01 T00161012  RH  083%=      5-min Rain = 0
KHRS 161130Z 19008KT 02/M01 A301 RMK A01 T00151012  RH  083%=      5-min Rain = 0
KHRS 161135Z 19007KT 01/M01 A301 RMK A01 T00141012  RH  083%=      5-min Rain = 0
KHRS 161140Z 20006KT 01/M01 A301 RMK A01 T00131013  RH  084%=      5-min Rain = 0
KHRS 161145Z 20006KT 01/M01 A301 RMK A01 T00111014  RH  084%=      5-min Rain = 0
KHRS 161150Z 20006KT 01/M02 A301 RMK A01 T00081017  RH  084%=      5-min Rain = 0
KHRS 161155Z 20007KT 01/M02 A301 RMK A01 T00051018  RH  085%=      5-min Rain = 0
KHRS 161200Z 19007KT 01/M02 A301 RMK A01 T00061016  RH  086%=      5-min Rain = 0
KHRS 161205Z 19005KT 01/M02 A301 RMK A01 T00081015  RH  086%=      5-min Rain = 0
KHRS 161210Z 19005KT 01/M02 A301 RMK A01 T00061018  RH  085%=      5-min Rain = 0
KHRS 161215Z 18004KT 00/M02 A3009 RMK A01 T00021021  RH  086%=      5-min Rain = 0
KHRS 161220Z 19005KT 00/02 A3009 RMK A01 T00000-22  RH  086%=      5-min Rain = 0
KHRS 161225Z 20005KT 00/02 A3009 RMK A01 T00-00-21  RH  087%=      5-min Rain = 0
KHRS 161230Z 20005KT M00/M02 A3009 RMK A01 T10021023  RH  087%=      5-min Rain = 0
KHRS 161235Z 20005KT M00/M02 A3009 RMK A01 T10021022  RH  088%=      5-min Rain = 0
KHRS 161240Z 20005KT M00/M02 A301 RMK A01 T10041023  RH  088%=      5-min Rain = 0
KHRS 161245Z 20006KT M00/M02 A301 RMK A01 T10041023  RH  088%=      5-min Rain = 0
KHRS 161250Z 20006KT M01/M02 A301 RMK A01 T10051023  RH  088%=      5-min Rain = 0
KHRS 161255Z 20005KT M00/M02 A301 RMK A01 T10041021  RH  089%=      5-min Rain = 0
KHRS 161300Z 20003KT M00/M02 A301 RMK A01 T10031020  RH  089%=      5-min Rain = 0
KHRS 161305Z 19004KT M00/M02 A3009 RMK A01 T10021020  RH  089%=      5-min Rain = 0
KHRS 161310Z 19005KT M00/M02 A301 RMK A01 T10021019  RH  089%=      5-min Rain = 0
KHRS 161315Z 19005KT M00/M02 A301 RMK A01 T10021019  RH  089%=      5-min Rain = 0
KHRS 161320Z 20005KT M00/M02 A301 RMK A01 T10021019  RH  090%=      5-min Rain = 0
KHRS 161325Z 20005KT M00/M02 A301 RMK A01 T10011017  RH  090%=      5-min Rain = 0
KHRS 161330Z 20005KT 00/M02 A301 RMK A01 T00011015  RH  090%=      5-min Rain = 0
KHRS 161335Z 20005KT 00/M01 A301 RMK A01 T00021014  RH  090%=      5-min Rain = 0
KHRS 161340Z 19005KT 01/M01 A301 RMK A01 T00051012  RH  090%=      5-min Rain = 0
KHRS 161345Z 20005KT 01/M01 A301 RMK A01 T00061011  RH  089%=      5-min Rain = 0
KHRS 161350Z 20005KT 01/M01 A301 RMK A01 T00061012  RH  089%=      5-min Rain = 0
KHRS 161355Z 19005KT 01/M01 A301 RMK A01 T00071010  RH  090%=      5-min Rain = 0
KHRS 161400Z 19005KT 01/M01 A301 RMK A01 T00091008  RH  090%=      5-min Rain = 0
KHRS 161405Z 20005KT 01/M01 A301 RMK A01 T00121005  RH  089%=      5-min Rain = 0
KHRS 161410Z 20006KT 02/M00 A301 RMK A01 T00151003  RH  089%=      5-min Rain = 0
KHRS 161415Z 20007KT 02/M00 A301 RMK A01 T00201001  RH  087%=      5-min Rain = 0
KHRS 161420Z 20008KT 02/00 A301 RMK A01 T00230000  RH  086%=      5-min Rain = 0
KHRS 161425Z 20009KT 03/00 A301 RMK A01 T00250000  RH  085%=      5-min Rain = 0
KHRS 161430Z 20008KT 03/00 A301 RMK A01 T00270001  RH  084%=      5-min Rain = 0
KHRS 161435Z 20008KT 03/00 A301 RMK A01 T00290002  RH  084%=      5-min Rain = 0
KHRS 161440Z 21007KT 03/00 A301 RMK A01 T00320003  RH  083%=      5-min Rain = 0
KHRS 161445Z 21007KT 04/01 A301 RMK A01 T00350005  RH  082%=      5-min Rain = 0
KHRS 161450Z 20007KT 04/01 A301 RMK A01 T00380007  RH  081%=      5-min Rain = 0
KHRS 161455Z 21009KT 04/01 A301 RMK A01 T00420009  RH  080%=      5-min Rain = 0
KHRS 161500Z 21009KT 05/01 A301 RMK A01 T00490012  RH  078%=      5-min Rain = 0
KHRS 161505Z 21010KT 05/01 A3009 RMK A01 T00540012  RH  075%=      5-min Rain = 0
KHRS 161510Z 21010KT 06/01 A3009 RMK A01 T00600014  RH  073%=      5-min Rain = 0
KHRS 161515Z 20011KT 07/02 A3009 RMK A01 T00650015  RH  071%=      5-min Rain = 0
KHRS 161520Z 21010KT 07/02 A3009 RMK A01 T00700016  RH  070%=      5-min Rain = 0
KHRS 161525Z 20010KT 07/02 A3009 RMK A01 T00730017  RH  068%=      5-min Rain = 0
KHRS 161530Z 21010KT 08/02 A3009 RMK A01 T00750016  RH  067%=      5-min Rain = 0
KHRS 161535Z 21010KT 08/02 A3009 RMK A01 T00750015  RH  067%=      5-min Rain = 0
KHRS 161540Z 21009G14KT 08/02 A3009 RMK A01 T00770015  RH  066%=      5-min Rain = 0
KHRS 161545Z 20009KT 08/02 A3009 RMK A01 T00840018  RH  064%=      5-min Rain = 0
KHRS 161550Z 21010KT 09/02 A3009 RMK A01 T00870016  RH  062%=      5-min Rain = 0
KHRS 161555Z 21011KT 09/02 A3008 RMK A01 T00880016  RH  061%=      5-min Rain = 0
KHRS 161600Z 20012KT 09/02 A3008 RMK A01 T00920015  RH  060%=      5-min Rain = 0
KHRS 161605Z 20010KT 10/02 A3008 RMK A01 T00960016  RH  058%=      5-min Rain = 0
KHRS 161610Z 20011KT 10/02 A3008 RMK A01 T01030017  RH  056%=      5-min Rain = 0
KHRS 161615Z 21012KT 11/02 A3008 RMK A01 T01060016  RH  054%=      5-min Rain = 0
KHRS 161620Z 21011KT 11/02 A3008 RMK A01 T01050016  RH  054%=      5-min Rain = 0
KHRS 161625Z 21011KT 11/02 A3009 RMK A01 T01060017  RH  055%=      5-min Rain = 0
KHRS 161630Z 21012KT 11/02 A3008 RMK A01 T01120017  RH  053%=      5-min Rain = 0
KHRS 161635Z 21011KT 11/02 A3008 RMK A01 T01120017  RH  053%=      5-min Rain = 0
KHRS 161640Z 20010KT 12/02 A3008 RMK A01 T01210019  RH  050%=      5-min Rain = 0
KHRS 161645Z 20010KT 13/02 A3008 RMK A01 T01260018  RH  048%=      5-min Rain = 0
KHRS 161650Z 20010KT 13/02 A3007 RMK A01 T01300017  RH  047%=      5-min Rain = 0
KHRS 161655Z 19011KT 14/02 A3007 RMK A01 T01350017  RH  045%=      5-min Rain = 0
KHRS 161700Z 19011KT 14/02 A3007 RMK A01 T01350017  RH  045%=      5-min Rain = 0
KHRS 161705Z 20011KT 14/02 A3007 RMK A01 T01410017  RH  043%=      5-min Rain = 0
KHRS 161710Z 19013KT 15/02 A3006 RMK A01 T01450015  RH  042%=      5-min Rain = 0
KHRS 161715Z 19011KT 15/02 A3006 RMK A01 T01470016  RH  042%=      5-min Rain = 0
KHRS 161720Z 20012KT 16/02 A3006 RMK A01 T01550015  RH  039%=      5-min Rain = 0
KHRS 161725Z 20014KT 16/01 A3005 RMK A01 T01570012  RH  038%=      5-min Rain = 0
KHRS 161730Z 19013KT 16/01 A3005 RMK A01 T01600011  RH  037%=      5-min Rain = 0
KHRS 161735Z 19013KT 16/01 A3005 RMK A01 T01630012  RH  036%=      5-min Rain = 0
KHRS 161740Z 19013KT 16/01 A3004 RMK A01 T01640010  RH  036%=      5-min Rain = 0
KHRS 161745Z 19014G19KT 17/01 A3004 RMK A01 T01650008  RH  035%=      5-min Rain = 0
KHRS 161750Z 20012KT 17/01 A3004 RMK A01 T01660007  RH  034%=      5-min Rain = 0
KHRS 161755Z 20013KT 17/01 A3004 RMK A01 T01670008  RH  034%=      5-min Rain = 0
KHRS 161800Z 20012KT 17/01 A3003 RMK A01 T01680006  RH  034%=      5-min Rain = 0
KHRS 161805Z 20012KT 17/01 A3003 RMK A01 T01710007  RH  033%=      5-min Rain = 0
KHRS 161810Z 20011KT 17/01 A3003 RMK A01 T01700006  RH  033%=      5-min Rain = 0
KHRS 161815Z 19011KT 18/01 A3003 RMK A01 T01750008  RH  033%=      5-min Rain = 0
KHRS 161820Z 20013KT 18/01 A3002 RMK A01 T01760006  RH  032%=      5-min Rain = 0
KHRS 161825Z 20013KT 17/00 A3002 RMK A01 T01740004  RH  032%=      5-min Rain = 0
KHRS 161830Z 19013KT 18/00 A3002 RMK A01 T01780004  RH  031%=      5-min Rain = 0
KHRS 161835Z 20014KT 18/00 A3001 RMK A01 T01780002  RH  031%=      5-min Rain = 0
KHRS 161840Z 20013KT 18/00 A3001 RMK A01 T01790002  RH  030%=      5-min Rain = 0
KHRS 161845Z 20013KT 18/00 A30 RMK A01 T01820004  RH  030%=      5-min Rain = 0
KHRS 161850Z 20014KT 18/00 A30 RMK A01 T01820001  RH  030%=      5-min Rain = 0
KHRS 161855Z 20013KT 18/00 A30 RMK A01 T01830001  RH  030%=      5-min Rain = 0
KHRS 161900Z 20014KT 18/M00 A2999 RMK A01 T01821001  RH  029%=      5-min Rain = 0
KHRS 161905Z 20013KT 18/00 A2999 RMK A01 T018100-0  RH  030%=      5-min Rain = 0
KHRS 161910Z 20012KT 18/00 A2999 RMK A01 T01830001  RH  030%=      5-min Rain = 0
KHRS 161915Z 20011KT 18/00 A2999 RMK A01 T01820002  RH  030%=      5-min Rain = 0
KHRS 161920Z 20012KT 18/00 A2998 RMK A01 T01830000  RH  030%=      5-min Rain = 0
KHRS 161925Z 19012KT 18/00 A2998 RMK A01 T01810000  RH  030%=      5-min Rain = 0
KHRS 161930Z 19011KT 18/00 A2998 RMK A01 T01790001  RH  030%=      5-min Rain = 0
KHRS 161935Z 20011KT 18/00 A2998 RMK A01 T01790001  RH  030%=      5-min Rain = 0
KHRS 161940Z 19012KT 18/00 A2997 RMK A01 T01790001  RH  031%=      5-min Rain = 0
KHRS 161945Z 19012KT 18/00 A2997 RMK A01 T01780002  RH  031%=      5-min Rain = 0
KHRS 161950Z 19013KT 18/00 A2997 RMK A01 T01790002  RH  031%=      5-min Rain = 0
KHRS 161955Z 19012KT 18/00 A2997 RMK A01 T01820002  RH  030%=      5-min Rain = 0
KHRS 162000Z 19013KT 19/00 A2996 RMK A01 T01850001  RH  029%=      5-min Rain = 0
KHRS 162005Z 19013KT 19/00 A2996 RMK A01 T018600-0  RH  029%=      5-min Rain = 0
KHRS 162010Z 18011G16KT 18/M00 A2996 RMK A01 T01821001  RH  029%=      5-min Rain = 0
KHRS 162015Z 19013KT 18/M00 A2996 RMK A01 T01811001  RH  029%=      5-min Rain = 0
KHRS 162020Z 19012KT 18/00 A2996 RMK A01 T018100-0  RH  030%=      5-min Rain = 0
KHRS 162025Z 20012KT 18/00 A2996 RMK A01 T018100-0  RH  030%=      5-min Rain = 0
KHRS 162030Z 19012KT 18/00 A2996 RMK A01 T01820001  RH  030%=      5-min Rain = 0
KHRS 162035Z 18011KT 18/00 A2995 RMK A01 T01810002  RH  030%=      5-min Rain = 0
KHRS 162040Z 18011G17KT 18/00 A2995 RMK A01 T01830002  RH  030%=      5-min Rain = 0
KHRS 162045Z 19012G17KT 19/00 A2995 RMK A01 T01850000  RH  029%=      5-min Rain = 0
KHRS 162050Z 18011G17KT 18/00 A2995 RMK A01 T01840000  RH  029%=      5-min Rain = 0
KHRS 162055Z 18011KT 18/M00 A2994 RMK A01 T01831002  RH  029%=      5-min Rain = 0
KHRS 162100Z 18012G17KT 18/M00 A2994 RMK A01 T01811004  RH  029%=      5-min Rain = 0
KHRS 162105Z 18012G17KT 18/M01 A2994 RMK A01 T01811006  RH  029%=      5-min Rain = 0
KHRS 162110Z 18010G15KT 18/M00 A2994 RMK A01 T01811003  RH  029%=      5-min Rain = 0
KHRS 162115Z 18011G16KT 18/M00 A2994 RMK A01 T01821004  RH  029%=      5-min Rain = 0
KHRS 162120Z 18010KT 18/M01 A2994 RMK A01 T01831005  RH  028%=      5-min Rain = 0
KHRS 162125Z 18010G15KT 18/00 A2994 RMK A01 T018300-0  RH  029%=      5-min Rain = 0
KHRS 162130Z 18011G16KT 18/00 A2994 RMK A01 T01830002  RH  030%=      5-min Rain = 0
KHRS 162135Z 18012KT 19/00 A2994 RMK A01 T01870004  RH  030%=      5-min Rain = 0
KHRS 162140Z 18012G17KT 19/00 A2993 RMK A01 T01900004  RH  029%=      5-min Rain = 0
KHRS 162145Z 18012G18KT 19/00 A2993 RMK A01 T01930002  RH  028%=      5-min Rain = 0
KHRS 162150Z 18012G17KT 19/00 A2994 RMK A01 T01920001  RH  028%=      5-min Rain = 0
KHRS 162155Z 18011G16KT 19/00 A2994 RMK A01 T01890002  RH  029%=      5-min Rain = 0
KHRS 162200Z 17013G18KT 19/00 A2994 RMK A01 T01860001  RH  029%=      5-min Rain = 0
KHRS 162205Z 18013G19KT 19/00 A2994 RMK A01 T01880003  RH  029%=      5-min Rain = 0
KHRS 162210Z 17011G17KT 19/01 A2994 RMK A01 T01870006  RH  030%=      5-min Rain = 0
KHRS 162215Z 18012G17KT 18/01 A2994 RMK A01 T01840006  RH  030%=      5-min Rain = 0
KHRS 162220Z 18011KT 18/01 A2994 RMK A01 T01840006  RH  031%=      5-min Rain = 0
KHRS 162225Z 17010G15KT 18/01 A2994 RMK A01 T01830007  RH  031%=      5-min Rain = 0
KHRS 162230Z 18010G15KT 18/01 A2994 RMK A01 T01770008  RH  032%=      5-min Rain = 0
KHRS 162235Z 17009G15KT 17/01 A2994 RMK A01 T01740007  RH  033%=      5-min Rain = 0
KHRS 162240Z 17009G14KT 17/01 A2994 RMK A01 T01710007  RH  033%=      5-min Rain = 0
KHRS 162245Z 17010G15KT 17/01 A2994 RMK A01 T01690007  RH  034%=      5-min Rain = 0
KHRS 162250Z 18010G15KT 17/01 A2994 RMK A01 T01660007  RH  034%=      5-min Rain = 0
KHRS 162255Z 17009KT 16/01 A2993 RMK A01 T01630008  RH  035%=      5-min Rain = 0
KHRS 162300Z 18009G14KT 16/01 A2994 RMK A01 T01610007  RH  036%=      5-min Rain = 0
KHRS 162305Z 17008KT 16/01 A2994 RMK A01 T01570008  RH  037%=      5-min Rain = 0
KHRS 162310Z 17009KT 15/01 A2994 RMK A01 T01540010  RH  038%=      5-min Rain = 0
KHRS 162315Z 17010KT 15/01 A2994 RMK A01 T01540010  RH  038%=      5-min Rain = 0
KHRS 162320Z 17009KT 15/01 A2994 RMK A01 T01540012  RH  039%=      5-min Rain = 0
KHRS 162325Z 17008G13KT 15/01 A2995 RMK A01 T01510010  RH  039%=      5-min Rain = 0
KHRS 162330Z 17007G12KT 15/01 A2995 RMK A01 T01470010  RH  040%=      5-min Rain = 0
KHRS 162335Z 17008G13KT 14/01 A2995 RMK A01 T01430010  RH  041%=      5-min Rain = 0
KHRS 162340Z 17008KT 14/01 A2995 RMK A01 T01400009  RH  041%=      5-min Rain = 0
KHRS 162345Z 17007KT 14/01 A2995 RMK A01 T01360008  RH  042%=      5-min Rain = 0
KHRS 162350Z 17006KT 13/01 A2995 RMK A01 T01330007  RH  043%=      5-min Rain = 0
KHRS 162355Z 17006KT 13/01 A2995 RMK A01 T01280005  RH  044%=      5-min Rain = 0
KHRS 170000Z 17006KT 12/00 A2995 RMK A01 T01230004  RH  045%=      5-min Rain = 0
KHRS 170005Z 17006KT 12/01 A2995 RMK A01 T01190005  RH  046%=      5-min Rain = 0
KHRS 170010Z 17005KT 12/00 A2995 RMK A01 T01150004  RH  047%=      5-min Rain = 0
KHRS 170015Z 17006KT 11/00 A2995 RMK A01 T01120003  RH  048%=      5-min Rain = 0
KHRS 170020Z 17006KT 11/00 A2995 RMK A01 T01080004  RH  049%=      5-min Rain = 0
KHRS 170025Z 17006KT 11/01 A2996 RMK A01 T01050005  RH  050%=      5-min Rain = 0
KHRS 170030Z 16006KT 10/01 A2996 RMK A01 T01040006  RH  051%=      5-min Rain = 0
KHRS 170035Z 16007KT 10/01 A2996 RMK A01 T01040006  RH  051%=      5-min Rain = 0
KHRS 170040Z 16008KT 11/01 A2996 RMK A01 T01050006  RH  051%=      5-min Rain = 0
KHRS 170045Z 16007KT 11/01 A2996 RMK A01 T01050006  RH  051%=      5-min Rain = 0
KHRS 170050Z 17007KT 10/01 A2996 RMK A01 T01040006  RH  051%=      5-min Rain = 0
KHRS 170055Z 17006KT 10/01 A2996 RMK A01 T01010006  RH  052%=      5-min Rain = 0
KHRS 170100Z 16007KT 10/01 A2996 RMK A01 T01000007  RH  053%=      5-min Rain = 0
KHRS 170105Z 16006KT 10/01 A2996 RMK A01 T01000008  RH  053%=      5-min Rain = 0
KHRS 170110Z 16007KT 10/01 A2996 RMK A01 T01000007  RH  053%=      5-min Rain = 0
KHRS 170115Z 16007KT 10/01 A2996 RMK A01 T00990006  RH  053%=      5-min Rain = 0
KHRS 170120Z 17007KT 10/01 A2996 RMK A01 T00970006  RH  054%=      5-min Rain = 0
KHRS 170125Z 16008KT 10/01 A2995 RMK A01 T00950006  RH  054%=      5-min Rain = 0
KHRS 170130Z 16008KT 09/01 A2995 RMK A01 T00930006  RH  055%=      5-min Rain = 0
KHRS 170135Z 17006KT 09/01 A2996 RMK A01 T00880005  RH  056%=      5-min Rain = 0
KHRS 170140Z 17005KT 08/00 A2996 RMK A01 T00840004  RH  057%=      5-min Rain = 0
KHRS 170145Z 17006KT 08/00 A2996 RMK A01 T00810003  RH  058%=      5-min Rain = 0
KHRS 170150Z 17006KT 08/00 A2996 RMK A01 T00800004  RH  059%=      5-min Rain = 0
KHRS 170155Z 17007KT 08/01 A2997 RMK A01 T00810005  RH  059%=      5-min Rain = 0
KHRS 170200Z 17007KT 08/01 A2996 RMK A01 T00840005  RH  058%=      5-min Rain = 0
KHRS 170205Z 16007KT 08/00 A2997 RMK A01 T00840004  RH  058%=      5-min Rain = 0
KHRS 170210Z 16007KT 08/00 A2996 RMK A01 T00810004  RH  059%=      5-min Rain = 0
KHRS 170215Z 16007KT 08/00 A2997 RMK A01 T00790004  RH  060%=      5-min Rain = 0
KHRS 170220Z 17007KT 08/01 A2996 RMK A01 T00800006  RH  060%=      5-min Rain = 0
KHRS 170225Z 17007KT 08/01 A2996 RMK A01 T00830006  RH  059%=      5-min Rain = 0
KHRS 170230Z 17007KT 09/01 A2996 RMK A01 T00870009  RH  058%=      5-min Rain = 0
KHRS 170235Z 17006KT 09/01 A2996 RMK A01 T00900008  RH  057%=      5-min Rain = 0
KHRS 170240Z 17006G11KT 09/01 A2996 RMK A01 T00900009  RH  057%=      5-min Rain = 0
KHRS 170245Z 18007KT 09/01 A2996 RMK A01 T00930010  RH  057%=      5-min Rain = 0
KHRS 170250Z 18007KT 09/01 A2996 RMK A01 T00930009  RH  056%=      5-min Rain = 0
KHRS 170255Z 18008KT 09/01 A2996 RMK A01 T00940010  RH  056%=      5-min Rain = 0
KHRS 170300Z 19009KT 10/01 A2996 RMK A01 T00970010  RH  055%=      5-min Rain = 0
KHRS 170305Z 19009KT 10/01 A2996 RMK A01 T00960010  RH  056%=      5-min Rain = 0
KHRS 170310Z 19009KT 09/01 A2996 RMK A01 T00930010  RH  057%=      5-min Rain = 0
KHRS 170315Z 19010KT 09/01 A2996 RMK A01 T00910009  RH  057%=      5-min Rain = 0
KHRS 170320Z 19009KT 09/01 A2996 RMK A01 T00890009  RH  058%=      5-min Rain = 0
KHRS 170325Z 19009KT 09/01 A2996 RMK A01 T00890009  RH  058%=      5-min Rain = 0
KHRS 170330Z 19009KT 09/01 A2996 RMK A01 T00880008  RH  058%=      5-min Rain = 0
KHRS 170335Z 20008KT 09/01 A2996 RMK A01 T00860009  RH  059%=      5-min Rain = 0
KHRS 170340Z 20008KT 08/01 A2996 RMK A01 T00840009  RH  060%=      5-min Rain = 0
KHRS 170345Z 20008KT 08/01 A2997 RMK A01 T00810007  RH  060%=      5-min Rain = 0
KHRS 170350Z 20006KT 08/01 A2997 RMK A01 T00760006  RH  062%=      5-min Rain = 0
KHRS 170355Z 20005KT 07/01 A2997 RMK A01 T00720005  RH  063%=      5-min Rain = 0
KHRS 170400Z 20005KT 07/01 A2997 RMK A01 T00690005  RH  064%=      5-min Rain = 0
KHRS 170405Z 20005KT 07/00 A2997 RMK A01 T00680004  RH  064%=      5-min Rain = 0
KHRS 170410Z 20006KT 07/00 A2997 RMK A01 T00660003  RH  065%=      5-min Rain = 0
KHRS 170415Z 19006KT 07/00 A2998 RMK A01 T00650004  RH  066%=      5-min Rain = 0
KHRS 170420Z 19006KT 07/00 A2998 RMK A01 T00660003  RH  065%=      5-min Rain = 0
KHRS 170425Z 19007KT 06/00 A2998 RMK A01 T00610003  RH  067%=      5-min Rain = 0
KHRS 170430Z 19008KT 06/00 A2998 RMK A01 T00630003  RH  066%=      5-min Rain = 0
KHRS 170435Z 20008KT 06/01 A2997 RMK A01 T00610005  RH  068%=      5-min Rain = 0
KHRS 170440Z 20006KT 06/01 A2997 RMK A01 T00610005  RH  068%=      5-min Rain = 0
KHRS 170445Z 21005KT 06/01 A2997 RMK A01 T00630007  RH  068%=      5-min Rain = 0
KHRS 170450Z 22004KT 07/01 A2998 RMK A01 T00660006  RH  066%=      5-min Rain = 0
KHRS 170455Z 22005KT 06/01 A2997 RMK A01 T00630005  RH  067%=      5-min Rain = 0
KHRS 170500Z 22004KT 06/01 A2997 RMK A01 T00640005  RH  067%=      5-min Rain = 0
KHRS 170505Z 22005KT 06/00 A2997 RMK A01 T00640004  RH  066%=      5-min Rain = 0
KHRS 170510Z 21005KT 07/01 A2997 RMK A01 T00650005  RH  066%=      5-min Rain = 0
KHRS 170515Z 21004KT 07/01 A2997 RMK A01 T00670005  RH  065%=      5-min Rain = 0
KHRS 170520Z 21003KT 07/00 A2996 RMK A01 T00660004  RH  065%=      5-min Rain = 0
KHRS 170525Z 21004KT 07/00 A2997 RMK A01 T00660004  RH  065%=      5-min Rain = 0
KHRS 170530Z 22005KT 06/00 A2997 RMK A01 T00630002  RH  066%=      5-min Rain = 0
KHRS 170535Z 22005KT 06/00 A2997 RMK A01 T00590003  RH  068%=      5-min Rain = 0
KHRS 170540Z 22005KT 06/00 A2997 RMK A01 T00570003  RH  069%=      5-min Rain = 0
KHRS 170545Z 23005KT 06/00 A2997 RMK A01 T00570003  RH  069%=      5-min Rain = 0
KHRS 170550Z 23006KT 06/00 A2997 RMK A01 T00560003  RH  069%=      5-min Rain = 0
KHRS 170555Z 23006KT 05/00 A2997 RMK A01 T00530003  RH  071%=      5-min Rain = 0

Page generated in 0.0099 seconds.